首页
METAR-TAF:

METAR-TAF

机场 :

托尔马切沃机场

新西伯利亚, 俄罗斯

纬度: 55-01N, 经度: 082-38E, 海拔: 111米

当前天气观测

该预报发布于28分钟前的12:00 UTC
风速6节,风向
温度 23°C
湿度 69%
气压 1007 hPa
能见度10公里或以上
多云层高于3600英尺

METAR: UNNT 231200Z 35003MPS 9999 BKN036 23/17 Q1007 R25/090070 R16/090070 NOSIG RMK QFE745/0993

时间: 19:28 (12:28 UTC)

预报

该预报发布于1小时和28分钟前的11:00 UTC
预报有效从23日的 12点(UTC)到 24日的 12点(UTC)
风速6节,风向北转西北,有时为16节阵风
能見度: 8000
多云层高于4000英尺, 积雨云.
成为
从 23日的 15点(UTC)到 23日的 18点(UTC)
风速6节,风向南转南东,有时为16节阵风
短暂存在
从 24日的 06点(UTC)到 24日的 12点(UTC)
雷暴, 小雨,

TAF: UNNT 231100Z 2312/2412 33003G08MPS 8000 BKN040CB TX28/2409Z TN16/2322Z BECMG 2315/2318 16003G08MPS TEMPO 2406/2412 -TSRA

超过4000个机场的气象观测和天气预报(METAR&TAF报告)。

可查询的气象台以黄色和红色小点在地图上表示。

将鼠标移到小点上方,可查看气象台名称。

然后点击查看天气观测和预报。

如需切换地图:点击带黑十字的绿色按钮放大地图;点击带横线的绿色按钮缩小地图;或者点击绿色箭头查看邻近地区的地图。


METAR-TAF: